createdAt,value
2023-03-27T00:01:46.597Z,4.10
2023-03-27T00:04:19.844Z,4.20
2023-03-27T00:06:51.372Z,4.20
2023-03-27T00:09:22.803Z,4.20
2023-03-27T00:11:56.113Z,4.10
2023-03-27T00:14:27.641Z,4.10
2023-03-27T00:17:00.352Z,4.10
2023-03-27T00:19:33.625Z,4.00
2023-03-27T00:22:05.341Z,4.00
2023-03-27T00:24:37.274Z,4.10
2023-03-27T00:27:09.231Z,4.10
2023-03-27T00:29:41.350Z,4.20
2023-03-27T00:32:13.034Z,4.20
2023-03-27T00:34:44.549Z,4.20
2023-03-27T00:37:16.391Z,4.30
2023-03-27T00:39:50.303Z,4.30
2023-03-27T00:42:24.498Z,4.20
2023-03-27T00:44:56.147Z,4.20
2023-03-27T00:47:33.297Z,4.20
2023-03-27T00:50:07.368Z,4.20
2023-03-27T00:52:40.121Z,4.20
2023-03-27T00:55:14.860Z,4.20
2023-03-27T00:57:49.835Z,4.20
2023-03-27T01:00:21.922Z,4.20
2023-03-27T01:02:53.541Z,4.20
2023-03-27T01:05:27.220Z,4.20
2023-03-27T01:08:01.365Z,4.20
2023-03-27T01:10:37.609Z,4.20
2023-03-27T01:13:14.149Z,4.20
2023-03-27T01:15:48.507Z,4.20
2023-03-27T01:18:34.942Z,4.20
2023-03-27T01:21:24.306Z,4.30
2023-03-27T01:24:23.076Z,4.20
2023-03-27T01:27:10.441Z,4.20
2023-03-27T01:29:53.414Z,4.20
2023-03-27T01:32:41.646Z,4.20
2023-03-27T01:35:26.287Z,4.10
2023-03-27T01:38:23.815Z,4.10
2023-03-27T01:40:59.215Z,4.10
2023-03-27T01:43:34.621Z,4.20
2023-03-27T01:46:09.844Z,4.20
2023-03-27T01:48:45.189Z,4.30
2023-03-27T01:51:19.593Z,4.30
2023-03-27T01:53:54.493Z,4.30
2023-03-27T01:56:30.679Z,4.40
2023-03-27T01:59:05.739Z,4.40
2023-03-27T02:01:40.626Z,4.40
2023-03-27T02:04:16.600Z,4.40
2023-03-27T02:06:51.034Z,4.40
2023-03-27T02:09:25.639Z,4.40
2023-03-27T02:12:00.590Z,4.40
2023-03-27T02:14:36.024Z,4.50
2023-03-27T02:17:10.737Z,4.50
2023-03-27T02:19:47.361Z,4.50
2023-03-27T02:22:19.165Z,4.50
2023-03-27T02:24:56.229Z,4.50
2023-03-27T02:27:30.684Z,4.50
2023-03-27T02:30:08.823Z,4.60
2023-03-27T02:32:46.434Z,4.60
2023-03-27T02:35:30.167Z,4.50
2023-03-27T02:38:08.463Z,4.50
2023-03-27T02:40:45.537Z,4.50
2023-03-27T02:43:20.742Z,4.50
2023-03-27T02:45:56.368Z,4.60
2023-03-27T02:48:31.820Z,4.60
2023-03-27T02:51:06.608Z,4.60
2023-03-27T02:53:41.519Z,4.70
2023-03-27T02:56:15.283Z,4.90
2023-03-27T02:58:50.000Z,5.20
2023-03-27T03:01:23.823Z,5.50
2023-03-27T03:03:58.590Z,5.60
2023-03-27T03:06:30.548Z,5.80
2023-03-27T03:09:06.418Z,5.80
2023-03-27T03:11:40.077Z,5.90
2023-03-27T03:14:11.478Z,5.90
2023-03-27T03:16:42.964Z,5.90
2023-03-27T03:19:14.943Z,6.00
2023-03-27T03:21:48.267Z,6.00
2023-03-27T03:24:21.286Z,5.90
2023-03-27T03:26:52.734Z,5.90
2023-03-27T03:29:26.228Z,5.90
2023-03-27T03:31:58.165Z,5.90
2023-03-27T03:34:30.315Z,5.90
2023-03-27T03:37:02.538Z,5.90
2023-03-27T03:39:33.917Z,5.80
2023-03-27T03:42:06.309Z,5.90
2023-03-27T03:44:37.721Z,5.90
2023-03-27T03:47:09.167Z,5.90
2023-03-27T03:49:40.823Z,5.80
2023-03-27T03:52:12.859Z,5.80
2023-03-27T03:54:46.586Z,5.80
2023-03-27T03:57:18.630Z,5.90
2023-03-27T03:59:50.315Z,5.80
2023-03-27T04:02:28.948Z,5.80
2023-03-27T04:05:08.655Z,5.80
2023-03-27T04:07:35.670Z,5.90
2023-03-27T04:10:09.470Z,5.90
2023-03-27T04:12:41.321Z,5.90
2023-03-27T04:15:13.459Z,5.90
2023-03-27T04:17:45.267Z,5.90
2023-03-27T04:20:17.230Z,5.80
2023-03-27T04:22:51.976Z,5.80
2023-03-27T04:25:26.526Z,5.80
2023-03-27T04:27:57.917Z,5.80
2023-03-27T04:30:30.058Z,5.80
2023-03-27T04:33:01.486Z,5.80
2023-03-27T04:35:33.729Z,5.80
2023-03-27T04:38:05.225Z,5.80
2023-03-27T04:40:38.367Z,5.70
2023-03-27T04:43:09.777Z,5.80
2023-03-27T04:45:41.246Z,5.70
2023-03-27T04:48:12.852Z,5.70
2023-03-27T04:50:46.335Z,5.70
2023-03-27T04:53:18.033Z,5.70
2023-03-27T04:55:51.354Z,5.70
2023-03-27T04:58:23.953Z,5.70
2023-03-27T05:00:57.637Z,5.70
2023-03-27T05:03:29.724Z,5.70
2023-03-27T05:06:02.848Z,5.70
2023-03-27T05:08:34.471Z,5.70
2023-03-27T05:11:08.006Z,5.80
2023-03-27T05:13:40.954Z,5.70
2023-03-27T05:16:12.599Z,5.70
2023-03-27T05:18:45.115Z,5.80
2023-03-27T05:21:16.756Z,5.70
2023-03-27T05:23:48.230Z,5.90
2023-03-27T05:26:19.678Z,5.90
2023-03-27T05:28:52.467Z,5.90
2023-03-27T05:31:25.036Z,5.90
2023-03-27T05:33:56.860Z,6.00
2023-03-27T05:36:29.619Z,6.00
2023-03-27T05:39:02.169Z,6.00
2023-03-27T05:41:33.774Z,6.00
2023-03-27T05:44:05.240Z,5.90
2023-03-27T05:46:36.830Z,5.90
2023-03-27T05:49:08.721Z,5.90
2023-03-27T05:51:40.285Z,5.80
2023-03-27T05:54:13.218Z,5.90
2023-03-27T05:56:44.761Z,5.90
2023-03-27T05:59:17.157Z,5.90
2023-03-27T06:01:50.559Z,5.90
2023-03-27T06:04:22.981Z,5.90
2023-03-27T06:06:55.275Z,5.90
2023-03-27T06:09:26.776Z,5.80
2023-03-27T06:11:58.442Z,5.90
2023-03-27T06:14:29.815Z,5.80
2023-03-27T06:17:01.363Z,5.90
2023-03-27T06:19:32.805Z,5.80
2023-03-27T06:22:04.263Z,5.90
2023-03-27T06:24:35.674Z,5.90
2023-03-27T06:27:09.701Z,5.90
2023-03-27T06:29:41.749Z,5.90
2023-03-27T06:32:13.165Z,5.90
2023-03-27T06:34:45.475Z,5.90
2023-03-27T06:37:16.874Z,5.90
2023-03-27T06:39:49.985Z,5.90
2023-03-27T06:42:21.571Z,5.90
2023-03-27T06:44:53.181Z,5.90
2023-03-27T06:47:25.027Z,5.90
2023-03-27T06:49:56.861Z,5.90
2023-03-27T06:52:28.337Z,5.90
2023-03-27T06:54:59.837Z,5.90
2023-03-27T06:57:31.598Z,5.90
2023-03-27T07:00:03.490Z,5.90
2023-03-27T07:02:34.946Z,5.90
2023-03-27T07:05:08.412Z,5.90
2023-03-27T07:07:41.553Z,5.90
2023-03-27T07:10:13.241Z,5.90
2023-03-27T07:12:47.917Z,5.90
2023-03-27T07:15:21.188Z,5.90
2023-03-27T07:17:57.355Z,6.00
2023-03-27T07:20:30.945Z,6.00
2023-03-27T07:23:04.218Z,6.00
2023-03-27T07:25:37.762Z,5.90
2023-03-27T07:28:11.992Z,5.80
2023-03-27T07:30:43.942Z,5.70
2023-03-27T07:33:15.980Z,5.60
2023-03-27T07:35:49.135Z,5.60
2023-03-27T07:38:20.875Z,5.50
2023-03-27T07:40:52.328Z,5.50
2023-03-27T07:43:23.724Z,5.50
2023-03-27T07:45:56.263Z,5.50
2023-03-27T07:48:28.549Z,5.50
2023-03-27T07:51:10.616Z,5.40
2023-03-27T07:53:34.887Z,5.30
2023-03-27T07:56:08.608Z,5.20
2023-03-27T07:58:40.400Z,5.20
2023-03-27T08:01:11.930Z,5.20
2023-03-27T08:03:43.444Z,5.20
2023-03-27T08:06:15.277Z,5.30
2023-03-27T08:08:46.729Z,5.40
2023-03-27T08:11:29.676Z,5.40
2023-03-27T08:13:51.730Z,5.50
2023-03-27T08:16:24.859Z,5.60
2023-03-27T08:18:57.729Z,5.70
2023-03-27T08:21:30.687Z,5.90
2023-03-27T08:24:04.243Z,5.90
2023-03-27T08:26:36.345Z,5.90
2023-03-27T08:29:08.796Z,5.90
2023-03-27T08:31:40.354Z,5.80
2023-03-27T08:34:11.975Z,5.80
2023-03-27T08:36:43.482Z,5.70
2023-03-27T08:39:14.971Z,5.70
2023-03-27T08:41:51.629Z,5.70
2023-03-27T08:44:25.618Z,5.70
2023-03-27T08:47:00.591Z,5.90
2023-03-27T08:49:36.518Z,5.90
2023-03-27T08:52:12.910Z,5.90
2023-03-27T08:54:47.205Z,5.90
2023-03-27T08:57:21.757Z,5.90
2023-03-27T08:59:57.107Z,5.90
2023-03-27T09:02:37.448Z,5.90
2023-03-27T09:05:14.025Z,6.00
2023-03-27T09:07:50.270Z,6.00
2023-03-27T09:10:24.952Z,6.10
2023-03-27T09:13:02.583Z,6.10
2023-03-27T09:15:38.016Z,6.30
2023-03-27T09:18:13.149Z,6.40
2023-03-27T09:20:47.625Z,6.50
2023-03-27T09:23:22.001Z,6.60
2023-03-27T09:25:57.142Z,6.50
2023-03-27T09:28:32.165Z,6.50
2023-03-27T09:31:21.825Z,6.60
2023-03-27T09:33:54.349Z,6.50
2023-03-27T09:36:26.302Z,6.50
2023-03-27T09:39:02.318Z,6.50
2023-03-27T09:41:38.133Z,6.60
2023-03-27T09:44:12.553Z,6.70
2023-03-27T09:46:47.414Z,6.80
2023-03-27T09:49:29.909Z,6.70
2023-03-27T09:52:02.968Z,6.80
2023-03-27T09:54:40.693Z,6.80
2023-03-27T09:57:13.765Z,6.90
2023-03-27T09:59:54.561Z,6.90
2023-03-27T10:02:28.636Z,6.90
2023-03-27T10:05:02.258Z,7.00
2023-03-27T10:07:33.917Z,7.10
2023-03-27T10:10:09.104Z,6.90
2023-03-27T10:12:42.008Z,6.80
2023-03-27T10:15:33.866Z,6.70
2023-03-27T10:18:08.268Z,6.60
2023-03-27T10:20:41.257Z,6.60
2023-03-27T10:23:24.854Z,6.60
2023-03-27T10:26:00.170Z,6.60
2023-03-27T10:28:36.417Z,6.40
2023-03-27T10:31:11.179Z,6.40
2023-03-27T10:33:43.317Z,6.30
2023-03-27T10:36:15.003Z,6.30
2023-03-27T10:38:49.872Z,6.30
2023-03-27T10:41:28.094Z,6.30
2023-03-27T10:43:57.075Z,6.40
2023-03-27T10:46:30.977Z,6.40
2023-03-27T10:49:06.091Z,6.50
2023-03-27T10:51:46.575Z,6.50
2023-03-27T10:54:20.118Z,6.50
2023-03-27T10:56:57.103Z,6.50
2023-03-27T10:59:41.632Z,6.60
2023-03-27T11:02:12.746Z,6.70
2023-03-27T11:04:48.950Z,6.60
2023-03-27T11:07:24.298Z,6.60
2023-03-27T11:10:04.845Z,6.50
2023-03-27T11:12:38.606Z,6.60
2023-03-27T11:15:16.127Z,6.80
2023-03-27T11:17:51.103Z,7.00
2023-03-27T11:20:27.291Z,7.20
2023-03-27T11:23:04.362Z,7.30
2023-03-27T11:25:40.933Z,7.50
2023-03-27T11:28:22.974Z,7.70
2023-03-27T11:30:57.657Z,8.10
2023-03-27T11:33:38.464Z,8.50
2023-03-27T11:36:37.548Z,8.80
2023-03-27T11:39:17.616Z,9.20
2023-03-27T11:41:53.770Z,9.60
2023-03-27T11:44:26.543Z,9.70
2023-03-27T11:47:06.364Z,9.80
2023-03-27T11:49:51.987Z,9.70
2023-03-27T11:52:30.976Z,9.50
2023-03-27T11:55:14.232Z,9.40
2023-03-27T11:57:53.046Z,9.50
2023-03-27T12:00:34.291Z,9.60
2023-03-27T12:03:37.267Z,9.60
2023-03-27T12:06:17.121Z,9.40
2023-03-27T12:09:13.251Z,9.30
2023-03-27T12:11:47.729Z,9.40
2023-03-27T12:14:42.969Z,9.40
2023-03-27T12:17:42.220Z,9.50
2023-03-27T12:20:43.623Z,9.50
2023-03-27T12:23:37.916Z,9.50
2023-03-27T12:26:35.021Z,9.20
2023-03-27T12:29:23.907Z,9.10
2023-03-27T12:32:03.870Z,9.00
2023-03-27T12:34:43.606Z,9.10
2023-03-27T12:37:16.113Z,9.20
2023-03-27T12:39:52.006Z,9.30
2023-03-27T12:42:44.556Z,9.20
2023-03-27T12:45:19.578Z,9.20
2023-03-27T12:48:19.061Z,8.90
2023-03-27T12:50:59.302Z,8.70
2023-03-27T12:53:53.588Z,8.50
2023-03-27T12:56:38.010Z,8.20
2023-03-27T12:59:22.198Z,8.10
2023-03-27T13:02:43.488Z,7.90
2023-03-27T13:05:43.039Z,7.90
2023-03-27T13:08:22.901Z,7.80
2023-03-27T13:10:59.438Z,7.70
2023-03-27T13:13:42.877Z,7.70
2023-03-27T13:16:26.266Z,7.70
2023-03-27T13:19:12.558Z,7.80
2023-03-27T13:21:48.717Z,8.00
2023-03-27T13:24:31.862Z,8.00
2023-03-27T13:27:11.268Z,8.00
2023-03-27T13:29:43.496Z,8.10
2023-03-27T13:32:36.939Z,8.10
2023-03-27T13:35:29.711Z,8.30
2023-03-27T13:38:01.210Z,8.50
2023-03-27T13:40:36.330Z,8.70
2023-03-27T13:43:22.871Z,8.70
2023-03-27T13:45:57.702Z,8.80
2023-03-27T13:48:48.296Z,8.90
2023-03-27T13:51:56.738Z,8.80
2023-03-27T13:54:46.253Z,8.80
2023-03-27T13:57:36.490Z,8.80
2023-03-27T14:03:59.920Z,9.00
2023-03-27T14:09:58.150Z,8.80
2023-03-27T14:12:34.042Z,8.70
2023-03-27T14:15:19.684Z,8.50
2023-03-27T14:18:09.846Z,8.30
2023-03-27T14:20:45.515Z,8.00
2023-03-27T14:23:22.376Z,7.70
2023-03-27T14:25:57.832Z,7.50
2023-03-27T14:28:32.242Z,7.30
2023-03-27T14:31:07.418Z,7.00
2023-03-27T14:33:41.211Z,6.80
2023-03-27T14:36:16.087Z,6.70
2023-03-27T14:38:48.018Z,6.60
2023-03-27T14:41:25.418Z,6.50
2023-03-27T14:43:58.267Z,6.50
2023-03-27T14:46:30.521Z,6.50
2023-03-27T14:49:02.401Z,6.60
2023-03-27T14:51:37.712Z,6.70
2023-03-27T14:54:11.963Z,6.80
2023-03-27T14:56:47.658Z,6.80
2023-03-27T14:59:23.240Z,6.80
2023-03-27T15:01:58.107Z,6.80
2023-03-27T15:04:31.729Z,6.90
2023-03-27T15:07:18.540Z,7.10
2023-03-27T15:10:02.517Z,7.20
2023-03-27T15:12:54.143Z,7.20
2023-03-27T15:15:29.511Z,7.20
2023-03-27T15:18:04.026Z,7.20
2023-03-27T15:20:37.238Z,7.20
2023-03-27T15:23:13.043Z,7.10
2023-03-27T15:25:48.374Z,7.20
2023-03-27T15:28:24.455Z,7.30
2023-03-27T15:30:59.234Z,7.40
2023-03-27T15:33:34.776Z,7.50
2023-03-27T15:36:11.121Z,7.40
2023-03-27T15:38:45.014Z,7.40
2023-03-27T15:44:24.169Z,7.30
2023-03-27T15:46:57.792Z,7.20
2023-03-27T15:49:35.601Z,7.10
2023-03-27T15:52:30.653Z,7.10
2023-03-27T15:55:03.922Z,7.10
2023-03-27T15:57:35.420Z,7.20
2023-03-27T16:00:14.574Z,7.30
2023-03-27T16:02:47.907Z,7.40
2023-03-27T16:05:22.695Z,7.50
2023-03-27T16:07:54.169Z,7.50
2023-03-27T16:10:33.909Z,7.50
2023-03-27T16:13:07.588Z,7.40
2023-03-27T16:15:41.351Z,7.40
2023-03-27T16:18:19.779Z,7.50
2023-03-27T16:20:51.300Z,7.50
2023-03-27T16:23:22.965Z,7.60
2023-03-27T16:25:54.627Z,7.60
2023-03-27T16:28:27.923Z,7.70
2023-03-27T16:30:59.830Z,7.70
2023-03-27T16:33:31.648Z,7.60
2023-03-27T16:36:03.158Z,7.60
2023-03-27T16:38:36.417Z,7.50
2023-03-27T16:41:12.808Z,7.30
2023-03-27T16:43:46.281Z,7.30
2023-03-27T16:46:22.579Z,7.30
2023-03-27T16:48:56.190Z,7.20
2023-03-27T16:51:29.468Z,7.00
2023-03-27T16:54:01.570Z,6.90
2023-03-27T16:56:35.235Z,6.80
2023-03-27T16:59:06.734Z,6.70
2023-03-27T17:01:38.650Z,6.60
2023-03-27T17:04:10.552Z,6.60
2023-03-27T17:06:42.209Z,6.50
2023-03-27T17:09:13.737Z,6.50
2023-03-27T17:11:45.398Z,6.50
2023-03-27T17:14:17.454Z,6.50
2023-03-27T17:16:49.647Z,6.50
2023-03-27T17:19:21.337Z,6.50
2023-03-27T17:22:12.832Z,6.40
2023-03-27T17:24:55.357Z,6.30
2023-03-27T17:27:19.005Z,6.20
2023-03-27T17:29:50.618Z,6.10
2023-03-27T17:32:22.129Z,6.10
2023-03-27T17:34:53.772Z,6.10
2023-03-27T17:37:27.310Z,6.00
2023-03-27T17:39:59.361Z,6.00
2023-03-27T17:42:30.896Z,6.00
2023-03-27T17:45:02.698Z,6.00
2023-03-27T17:47:34.261Z,5.90
2023-03-27T17:50:07.825Z,6.00
2023-03-27T17:52:39.416Z,6.00
2023-03-27T17:55:11.756Z,6.00
2023-03-27T17:57:44.739Z,5.90
2023-03-27T18:00:20.344Z,5.90
2023-03-27T18:02:52.582Z,5.80
2023-03-27T18:05:24.208Z,5.70
2023-03-27T18:07:55.673Z,5.70
2023-03-27T18:10:27.209Z,5.70
2023-03-27T18:12:58.781Z,5.80
2023-03-27T18:15:30.809Z,5.90
2023-03-27T18:18:03.364Z,5.90
2023-03-27T18:20:35.155Z,5.80
2023-03-27T18:23:06.855Z,5.80
2023-03-27T18:25:40.130Z,5.80
2023-03-27T18:28:12.420Z,5.90
2023-03-27T18:30:44.264Z,5.80
2023-03-27T18:33:15.653Z,5.80
2023-03-27T18:35:51.479Z,5.60
2023-03-27T18:38:22.936Z,5.50
2023-03-27T18:40:55.800Z,5.50
2023-03-27T18:43:27.688Z,5.50
2023-03-27T18:46:00.139Z,5.50
2023-03-27T18:48:32.392Z,5.50
2023-03-27T18:51:08.520Z,5.60
2023-03-27T18:53:44.390Z,5.50
2023-03-27T18:56:17.010Z,5.40
2023-03-27T18:58:48.639Z,5.30
2023-03-27T19:01:20.198Z,5.30
2023-03-27T19:03:52.003Z,5.30
2023-03-27T19:06:25.542Z,5.20
2023-03-27T19:08:57.501Z,5.30
2023-03-27T19:11:29.141Z,5.30
2023-03-27T19:14:00.557Z,5.20
2023-03-27T19:16:32.746Z,5.20
2023-03-27T19:19:04.371Z,5.20
2023-03-27T19:21:36.179Z,5.20
2023-03-27T19:24:10.453Z,5.10
2023-03-27T19:26:42.268Z,5.10
2023-03-27T19:29:14.031Z,5.10
2023-03-27T19:31:45.678Z,5.10
2023-03-27T19:34:17.159Z,5.00
2023-03-27T19:36:51.033Z,5.00
2023-03-27T19:39:21.956Z,5.00
2023-03-27T19:41:53.452Z,4.90
2023-03-27T19:44:25.435Z,4.90
2023-03-27T19:46:57.043Z,5.00
2023-03-27T19:49:28.596Z,4.90
2023-03-27T19:52:00.152Z,4.80
2023-03-27T19:54:31.668Z,4.80
2023-03-27T19:57:03.288Z,4.70
2023-03-27T19:59:34.852Z,4.80
2023-03-27T20:02:06.966Z,4.80
2023-03-27T20:04:38.448Z,4.90
2023-03-27T20:07:10.710Z,5.00
2023-03-27T20:09:42.241Z,4.90
2023-03-27T20:12:13.875Z,4.80
2023-03-27T20:14:54.592Z,4.70
2023-03-27T20:17:27.955Z,4.40
2023-03-27T20:19:53.086Z,4.10
2023-03-27T20:22:24.925Z,3.90
2023-03-27T20:24:56.388Z,3.60
2023-03-27T20:27:27.827Z,3.50
2023-03-27T20:30:00.944Z,3.30
2023-03-27T20:32:32.358Z,3.20
2023-03-27T20:35:16.457Z,3.10
2023-03-27T20:37:40.099Z,3.10
2023-03-27T20:40:12.914Z,3.00
2023-03-27T20:42:47.577Z,3.00
2023-03-27T20:45:20.153Z,3.00
2023-03-27T20:47:52.696Z,3.00
2023-03-27T20:50:25.809Z,3.10
2023-03-27T20:52:58.305Z,3.10
2023-03-27T20:55:34.702Z,3.20
2023-03-27T20:58:05.142Z,3.20
2023-03-27T21:00:37.317Z,3.20
2023-03-27T21:03:09.344Z,3.30
2023-03-27T21:05:41.122Z,3.30
2023-03-27T21:08:12.717Z,3.40
2023-03-27T21:10:46.106Z,3.40
2023-03-27T21:13:17.530Z,3.50
2023-03-27T21:15:49.047Z,3.50
2023-03-27T21:18:20.510Z,3.50
2023-03-27T21:20:52.515Z,3.40
2023-03-27T21:23:24.544Z,3.30
2023-03-27T21:25:56.046Z,3.40
2023-03-27T21:28:27.479Z,3.40
2023-03-27T21:30:59.626Z,3.40
2023-03-27T21:33:31.115Z,3.40
2023-03-27T21:36:03.497Z,3.30
2023-03-27T21:41:40.375Z,3.40
2023-03-27T21:44:11.763Z,3.40
2023-03-27T21:46:43.491Z,3.40
2023-03-27T21:49:14.963Z,3.40
2023-03-27T21:51:46.434Z,3.40
2023-03-27T21:54:17.966Z,3.50
2023-03-27T21:56:49.475Z,3.40
2023-03-27T21:59:20.975Z,3.50
2023-03-27T22:01:52.483Z,3.50
2023-03-27T22:04:24.110Z,3.50
2023-03-27T22:06:56.387Z,3.50
2023-03-27T22:09:27.811Z,3.50
2023-03-27T22:11:59.292Z,3.50
2023-03-27T22:14:31.102Z,3.50
2023-03-27T22:17:03.468Z,3.50
2023-03-27T22:19:34.871Z,3.50
2023-03-27T22:22:06.505Z,3.50
2023-03-27T22:24:37.942Z,3.50
2023-03-27T22:27:09.411Z,3.50
2023-03-27T22:29:40.842Z,3.60
2023-03-27T22:32:10.601Z,3.60
2023-03-27T22:34:41.875Z,3.60
2023-03-27T22:37:13.318Z,3.50
2023-03-27T22:39:44.813Z,3.40
2023-03-27T22:42:16.288Z,3.40
2023-03-27T22:44:47.939Z,3.40
2023-03-27T22:51:19.118Z,3.50
2023-03-27T22:53:51.095Z,3.50
2023-03-27T22:56:22.673Z,3.50
2023-03-27T22:58:54.031Z,3.60
2023-03-27T23:01:25.545Z,3.60
2023-03-27T23:03:57.746Z,3.60
2023-03-27T23:06:30.930Z,3.70
2023-03-27T23:09:02.416Z,3.70
2023-03-27T23:11:33.957Z,3.70
2023-03-27T23:14:05.807Z,3.70
2023-03-27T23:16:41.363Z,3.70
2023-03-27T23:19:12.945Z,3.70
2023-03-27T23:21:45.014Z,3.60
2023-03-27T23:24:19.467Z,3.60
2023-03-27T23:26:51.221Z,3.60
2023-03-27T23:29:23.017Z,3.60
2023-03-27T23:31:54.668Z,3.50
2023-03-27T23:34:26.137Z,3.50
2023-03-27T23:36:57.730Z,3.50
2023-03-27T23:39:29.438Z,3.60
2023-03-27T23:42:00.859Z,3.50
2023-03-27T23:44:32.521Z,3.60
2023-03-27T23:47:04.043Z,3.60
2023-03-27T23:49:36.678Z,3.60
2023-03-27T23:52:08.332Z,3.60
2023-03-27T23:54:39.815Z,3.60
2023-03-27T23:57:11.312Z,3.60
2023-03-27T23:59:42.736Z,3.50
